createdAt,value
2023-05-14T00:01:19.806Z,23.86
2023-05-14T00:03:48.216Z,23.85
2023-05-14T00:06:17.007Z,23.85
2023-05-14T00:08:45.419Z,23.85
2023-05-14T00:11:14.045Z,23.85
2023-05-14T00:13:42.535Z,23.84
2023-05-14T00:16:12.826Z,23.84
2023-05-14T00:18:41.501Z,23.84
2023-05-14T00:21:09.925Z,23.84
2023-05-14T00:23:38.519Z,23.83
2023-05-14T00:26:06.903Z,23.81
2023-05-14T00:28:35.434Z,23.83
2023-05-14T00:31:04.075Z,23.81
2023-05-14T00:33:33.836Z,23.81
2023-05-14T00:36:02.468Z,23.81
2023-05-14T00:38:30.820Z,23.81
2023-05-14T00:40:59.144Z,23.81
2023-05-14T00:43:27.654Z,23.81
2023-05-14T00:45:59.034Z,23.80
2023-05-14T00:48:27.699Z,23.80
2023-05-14T00:50:57.416Z,23.79
2023-05-14T00:53:26.293Z,23.80
2023-05-14T00:55:54.687Z,23.79
2023-05-14T00:58:23.055Z,23.79
2023-05-14T01:00:52.257Z,23.78
2023-05-14T01:03:20.813Z,23.79
2023-05-14T01:05:58.637Z,23.78
2023-05-14T01:08:33.802Z,23.78
2023-05-14T01:11:06.436Z,23.77
2023-05-14T01:13:40.120Z,23.78
2023-05-14T01:16:09.091Z,23.77
2023-05-14T01:18:37.560Z,23.77
2023-05-14T01:21:08.224Z,23.78
2023-05-14T01:23:38.180Z,23.77
2023-05-14T01:26:06.779Z,23.77
2023-05-14T01:28:35.342Z,23.76
2023-05-14T01:31:06.460Z,23.76
2023-05-14T01:33:35.284Z,23.76
2023-05-14T01:36:03.664Z,23.76
2023-05-14T01:38:34.333Z,23.76
2023-05-14T01:41:04.582Z,23.76
2023-05-14T01:43:33.291Z,23.75
2023-05-14T01:46:01.654Z,23.76
2023-05-14T01:48:30.353Z,23.75
2023-05-14T01:50:58.934Z,23.75
2023-05-14T01:53:27.327Z,23.75
2023-05-14T01:55:55.936Z,23.75
2023-05-14T01:58:25.780Z,23.75
2023-05-14T02:00:54.187Z,23.75
2023-05-14T02:03:22.984Z,23.76
2023-05-14T02:05:51.392Z,23.74
2023-05-14T02:08:19.993Z,23.74
2023-05-14T02:10:48.385Z,23.75
2023-05-14T02:13:17.857Z,23.75
2023-05-14T02:15:47.661Z,23.75
2023-05-14T02:18:16.250Z,23.76
2023-05-14T02:20:44.717Z,23.75
2023-05-14T02:23:13.049Z,23.76
2023-05-14T02:25:41.564Z,23.75
2023-05-14T02:28:10.087Z,23.77
2023-05-14T02:30:38.721Z,23.76
2023-05-14T02:33:08.681Z,23.76
2023-05-14T02:35:37.480Z,23.76
2023-05-14T02:38:09.089Z,23.75
2023-05-14T02:40:38.663Z,23.75
2023-05-14T02:43:07.325Z,23.75
2023-05-14T02:45:35.730Z,23.75
2023-05-14T02:48:04.223Z,23.76
2023-05-14T02:50:34.178Z,23.76
2023-05-14T02:53:02.850Z,23.76
2023-05-14T02:55:31.531Z,23.75
2023-05-14T02:57:59.894Z,23.74
2023-05-14T03:00:28.277Z,23.75
2023-05-14T03:02:57.261Z,23.74
2023-05-14T03:05:26.332Z,23.75
2023-05-14T03:07:56.180Z,23.74
2023-05-14T03:10:24.809Z,23.74
2023-05-14T03:12:53.965Z,23.74
2023-05-14T03:15:22.376Z,23.75
2023-05-14T03:17:50.985Z,23.74
2023-05-14T03:20:19.927Z,23.74
2023-05-14T03:22:48.335Z,23.73
2023-05-14T03:25:19.001Z,23.73
2023-05-14T03:27:47.437Z,23.73
2023-05-14T03:30:17.565Z,23.73
2023-05-14T03:32:46.126Z,23.72
2023-05-14T03:35:14.666Z,23.73
2023-05-14T03:37:43.217Z,23.72
2023-05-14T03:40:12.689Z,23.71
2023-05-14T03:42:42.438Z,23.71
2023-05-14T03:45:11.936Z,23.72
2023-05-14T03:47:40.354Z,23.72
2023-05-14T03:50:10.613Z,23.72
2023-05-14T03:52:39.173Z,23.71
2023-05-14T03:55:08.715Z,23.72
2023-05-14T03:57:37.245Z,23.72
2023-05-14T04:00:08.890Z,23.71
2023-05-14T04:02:37.393Z,23.71
2023-05-14T04:05:06.422Z,23.71
2023-05-14T04:07:34.784Z,23.72
2023-05-14T04:10:04.712Z,23.71
2023-05-14T04:12:33.259Z,23.72
2023-05-14T04:15:02.345Z,23.72
2023-05-14T04:17:33.006Z,23.72
2023-05-14T04:20:02.587Z,23.71
2023-05-14T04:22:31.260Z,23.71
2023-05-14T04:24:59.632Z,23.72
2023-05-14T04:27:28.224Z,23.70
2023-05-14T04:29:56.811Z,23.70
2023-05-14T04:32:25.979Z,23.71
2023-05-14T04:34:56.077Z,23.72
2023-05-14T04:37:24.431Z,23.72
2023-05-14T04:39:52.993Z,23.71
2023-05-14T04:42:21.339Z,23.72
2023-05-14T04:44:49.874Z,23.72
2023-05-14T04:47:18.295Z,23.72
2023-05-14T04:49:46.691Z,23.73
2023-05-14T04:52:16.525Z,23.73
2023-05-14T04:54:45.029Z,23.73
2023-05-14T04:57:13.890Z,23.73
2023-05-14T04:59:42.300Z,23.73
2023-05-14T05:02:10.853Z,23.75
2023-05-14T05:04:39.757Z,23.74
2023-05-14T05:07:08.211Z,23.74
2023-05-14T05:09:38.194Z,23.74
2023-05-14T05:12:07.970Z,23.75
2023-05-14T05:14:36.316Z,23.76
2023-05-14T05:17:04.914Z,23.76
2023-05-14T05:19:43.067Z,23.77
2023-05-14T05:22:12.683Z,23.77
2023-05-14T05:24:42.558Z,23.76
2023-05-14T05:27:10.879Z,23.76
2023-05-14T05:29:39.513Z,23.78
2023-05-14T05:32:09.111Z,23.79
2023-05-14T05:34:37.802Z,23.79
2023-05-14T05:37:06.428Z,23.79
2023-05-14T05:39:35.303Z,23.79
2023-05-14T05:42:07.179Z,23.80
2023-05-14T05:44:35.625Z,23.80
2023-05-14T05:47:04.397Z,23.80
2023-05-14T05:49:33.009Z,23.81
2023-05-14T05:52:01.392Z,23.81
2023-05-14T05:54:29.943Z,23.81
2023-05-14T05:56:58.425Z,23.84
2023-05-14T05:59:28.418Z,23.84
2023-05-14T06:01:56.830Z,23.84
2023-05-14T06:04:25.336Z,23.85
2023-05-14T06:06:53.920Z,23.85
2023-05-14T06:09:22.323Z,23.85
2023-05-14T06:11:51.042Z,23.86
2023-05-14T06:14:19.383Z,23.86
2023-05-14T06:16:49.186Z,23.87
2023-05-14T06:19:18.078Z,23.87
2023-05-14T06:21:46.598Z,23.86
2023-05-14T06:24:15.161Z,23.87
2023-05-14T06:26:43.536Z,23.89
2023-05-14T06:29:12.081Z,23.93
2023-05-14T06:31:40.697Z,23.94
2023-05-14T06:34:10.741Z,23.97
2023-05-14T06:36:39.237Z,23.94
2023-05-14T06:39:07.613Z,23.94
2023-05-14T06:41:36.032Z,23.95
2023-05-14T06:44:04.932Z,23.96
2023-05-14T06:46:33.307Z,23.96
2023-05-14T06:49:01.821Z,23.97
2023-05-14T06:51:32.640Z,23.97
2023-05-14T06:54:00.997Z,23.97
2023-05-14T06:56:29.568Z,23.96
2023-05-14T06:58:57.972Z,23.99
2023-05-14T07:01:27.141Z,24.02
2023-05-14T07:03:55.568Z,24.04
2023-05-14T07:06:24.095Z,24.02
2023-05-14T07:08:53.926Z,24.03
2023-05-14T07:11:23.181Z,24.03
2023-05-14T07:13:51.860Z,24.04
2023-05-14T07:16:20.252Z,24.06
2023-05-14T07:18:48.656Z,24.07
2023-05-14T07:21:17.188Z,24.05
2023-05-14T07:23:45.763Z,24.07
2023-05-14T07:26:15.886Z,24.07
2023-05-14T07:28:44.211Z,24.07
2023-05-14T07:31:12.889Z,24.08
2023-05-14T07:33:41.365Z,24.10
2023-05-14T07:36:10.121Z,24.11
2023-05-14T07:38:38.684Z,24.11
2023-05-14T07:41:07.876Z,24.13
2023-05-14T07:43:39.001Z,24.15
2023-05-14T07:46:07.671Z,24.15
2023-05-14T07:48:36.240Z,24.16
2023-05-14T07:51:04.968Z,24.13
2023-05-14T07:53:33.285Z,24.17
2023-05-14T07:56:02.023Z,24.19
2023-05-14T07:58:30.446Z,24.20
2023-05-14T08:01:01.542Z,24.21
2023-05-14T08:03:30.203Z,24.21
2023-05-14T08:05:58.632Z,24.23
2023-05-14T08:08:27.645Z,24.23
2023-05-14T08:10:56.104Z,24.23
2023-05-14T08:13:24.843Z,24.25
2023-05-14T08:15:53.289Z,24.27
2023-05-14T08:18:23.065Z,24.24
2023-05-14T08:20:51.644Z,24.25
2023-05-14T08:23:20.191Z,24.25
2023-05-14T08:25:48.668Z,24.24
2023-05-14T08:28:17.042Z,24.25
2023-05-14T08:30:45.956Z,24.27
2023-05-14T08:33:14.564Z,24.28
2023-05-14T08:35:44.370Z,24.29
2023-05-14T08:38:12.708Z,24.28
2023-05-14T08:40:41.069Z,24.24
2023-05-14T08:43:09.662Z,24.27
2023-05-14T08:45:38.126Z,24.27
2023-05-14T08:48:08.911Z,24.27
2023-05-14T08:50:37.647Z,24.28
2023-05-14T08:53:07.427Z,24.30
2023-05-14T08:55:36.119Z,24.32
2023-05-14T08:58:04.517Z,24.30
2023-05-14T09:00:33.087Z,24.29
2023-05-14T09:03:01.589Z,24.30
2023-05-14T09:05:30.046Z,24.30
2023-05-14T09:07:58.550Z,24.30
2023-05-14T09:10:28.434Z,24.28
2023-05-14T09:12:56.787Z,24.25
2023-05-14T09:15:25.226Z,24.30
2023-05-14T09:17:53.611Z,24.29
2023-05-14T09:20:22.909Z,24.31
2023-05-14T09:22:54.744Z,24.30
2023-05-14T09:25:29.108Z,24.30
2023-05-14T09:27:58.992Z,24.30
2023-05-14T09:30:27.794Z,24.29
2023-05-14T09:32:56.499Z,24.29
2023-05-14T09:35:25.808Z,24.32
2023-05-14T09:37:55.524Z,24.28
2023-05-14T09:40:25.405Z,24.29
2023-05-14T09:42:55.463Z,24.29
2023-05-14T09:45:24.218Z,24.29
2023-05-14T09:47:53.490Z,24.29
2023-05-14T09:50:22.432Z,24.25
2023-05-14T09:52:51.076Z,24.25
2023-05-14T09:55:20.532Z,24.28
2023-05-14T09:57:48.912Z,24.29
2023-05-14T10:00:19.769Z,24.28
2023-05-14T10:02:48.366Z,24.27
2023-05-14T10:05:17.845Z,24.30
2023-05-14T10:07:49.085Z,24.32
2023-05-14T10:10:20.365Z,24.34
2023-05-14T10:12:53.484Z,24.28
2023-05-14T10:15:26.867Z,24.28
2023-05-14T10:17:57.410Z,24.30
2023-05-14T10:20:26.696Z,24.29
2023-05-14T10:22:55.287Z,24.29
2023-05-14T10:25:24.139Z,24.31
2023-05-14T10:27:52.646Z,24.35
2023-05-14T10:30:24.450Z,24.35
2023-05-14T10:33:08.331Z,24.35
2023-05-14T10:36:05.168Z,24.31
2023-05-14T10:38:34.799Z,24.28
2023-05-14T10:41:04.295Z,24.29
2023-05-14T10:43:37.683Z,24.29
2023-05-14T10:46:07.946Z,24.32
2023-05-14T10:48:36.525Z,24.30
2023-05-14T10:51:05.092Z,24.31
2023-05-14T10:53:37.953Z,24.31
2023-05-14T10:56:07.570Z,24.30
2023-05-14T10:58:38.426Z,24.32
2023-05-14T11:01:09.284Z,24.30
2023-05-14T11:03:42.419Z,24.32
2023-05-14T11:06:11.854Z,24.33
2023-05-14T11:08:40.591Z,24.32
2023-05-14T11:11:10.420Z,24.32
2023-05-14T11:13:38.869Z,24.32
2023-05-14T11:16:21.762Z,24.30
2023-05-14T11:18:55.855Z,24.30
2023-05-14T11:21:24.482Z,24.30
2023-05-14T11:23:52.902Z,24.32
2023-05-14T11:26:21.827Z,24.29
2023-05-14T11:28:50.285Z,24.31
2023-05-14T11:31:20.239Z,24.32
2023-05-14T11:33:48.991Z,24.32
2023-05-14T11:36:17.493Z,24.32
2023-05-14T11:38:50.841Z,24.32
2023-05-14T11:41:21.096Z,24.32
2023-05-14T11:43:49.496Z,24.31
2023-05-14T11:46:20.026Z,24.32
2023-05-14T11:48:49.061Z,24.34
2023-05-14T11:51:17.532Z,24.32
2023-05-14T11:53:47.608Z,24.33
2023-05-14T11:56:16.309Z,24.34
2023-05-14T11:58:50.169Z,24.33
2023-05-14T12:01:19.957Z,24.34
2023-05-14T12:03:48.590Z,24.34
2023-05-14T12:06:17.084Z,24.37
2023-05-14T12:08:45.940Z,24.34
2023-05-14T12:11:14.566Z,24.32
2023-05-14T12:13:42.941Z,24.36
2023-05-14T12:16:11.912Z,24.33
2023-05-14T12:18:41.742Z,24.34
2023-05-14T12:21:12.235Z,24.34
2023-05-14T12:23:40.753Z,24.34
2023-05-14T12:26:10.345Z,24.37
2023-05-14T12:28:43.492Z,24.42
2023-05-14T12:31:12.371Z,24.42
2023-05-14T12:33:42.218Z,24.44
2023-05-14T12:36:21.167Z,24.40
2023-05-14T12:38:50.489Z,24.40
2023-05-14T12:41:19.101Z,24.37
2023-05-14T12:43:48.598Z,24.37
2023-05-14T12:46:17.323Z,24.37
2023-05-14T12:48:47.319Z,24.37
2023-05-14T12:51:15.870Z,24.36
2023-05-14T12:53:44.575Z,24.35
2023-05-14T12:56:13.108Z,24.34
2023-05-14T12:58:41.787Z,24.32
2023-05-14T13:01:10.631Z,24.33
2023-05-14T13:03:39.297Z,24.32
2023-05-14T13:06:09.384Z,24.33
2023-05-14T13:08:38.079Z,24.32
2023-05-14T13:11:06.769Z,24.30
2023-05-14T13:13:35.121Z,24.31
2023-05-14T13:16:03.746Z,24.30
2023-05-14T13:18:32.272Z,24.30
2023-05-14T13:21:00.713Z,24.29
2023-05-14T13:23:30.603Z,24.28
2023-05-14T13:25:58.984Z,24.27
2023-05-14T13:28:27.560Z,24.28
2023-05-14T13:31:09.486Z,24.27
2023-05-14T13:33:39.603Z,24.25
2023-05-14T13:36:09.283Z,24.28
2023-05-14T13:38:39.171Z,24.26
2023-05-14T13:41:07.675Z,24.27
2023-05-14T13:43:36.658Z,24.26
2023-05-14T13:46:06.148Z,24.27
2023-05-14T13:48:34.574Z,24.28
2023-05-14T13:51:02.957Z,24.25
2023-05-14T13:53:31.716Z,24.25
2023-05-14T13:56:01.911Z,24.24
2023-05-14T13:58:30.546Z,24.24
2023-05-14T14:00:58.954Z,24.24
2023-05-14T14:03:27.413Z,24.25
2023-05-14T14:05:55.860Z,24.23
2023-05-14T14:08:24.699Z,24.25
2023-05-14T14:10:55.376Z,24.27
2023-05-14T14:13:25.677Z,24.28
2023-05-14T14:15:54.199Z,24.32
2023-05-14T14:18:22.727Z,24.33
2023-05-14T14:20:51.095Z,24.33
2023-05-14T14:23:19.665Z,24.32
2023-05-14T14:25:48.571Z,24.35
2023-05-14T14:28:17.237Z,24.38
2023-05-14T14:30:47.257Z,24.41
2023-05-14T14:33:15.838Z,24.40
2023-05-14T14:35:45.053Z,24.41
2023-05-14T14:38:14.180Z,24.40
2023-05-14T14:40:42.765Z,24.43
2023-05-14T14:43:11.279Z,24.38
2023-05-14T14:45:39.765Z,24.42
2023-05-14T14:48:31.730Z,24.37
2023-05-14T14:51:00.173Z,24.41
2023-05-14T14:53:28.633Z,24.42
2023-05-14T14:55:57.167Z,24.41
2023-05-14T14:58:26.127Z,24.41
2023-05-14T15:00:55.583Z,24.40
2023-05-14T15:03:24.241Z,24.41
2023-05-14T15:05:54.367Z,24.38
2023-05-14T15:08:26.762Z,24.41
2023-05-14T15:10:55.500Z,24.42
2023-05-14T15:13:24.890Z,24.41
2023-05-14T15:15:53.402Z,24.41
2023-05-14T15:18:21.861Z,24.40
2023-05-14T15:20:50.871Z,24.41
2023-05-14T15:23:20.675Z,24.40
2023-05-14T15:25:49.718Z,24.39
2023-05-14T15:28:18.326Z,24.39
2023-05-14T15:30:48.436Z,24.39
2023-05-14T15:33:19.340Z,24.39
2023-05-14T15:35:48.118Z,24.39
2023-05-14T15:38:16.811Z,24.38
2023-05-14T15:40:46.655Z,24.37
2023-05-14T15:43:15.158Z,24.37
2023-05-14T15:45:45.708Z,24.37
2023-05-14T15:48:14.209Z,24.36
2023-05-14T15:50:42.988Z,24.35
2023-05-14T15:53:11.381Z,24.35
2023-05-14T15:55:39.851Z,24.33
2023-05-14T15:58:10.037Z,24.32
2023-05-14T16:00:38.405Z,24.31
2023-05-14T16:03:07.387Z,24.32
2023-05-14T16:05:36.582Z,24.34
2023-05-14T16:08:05.447Z,24.33
2023-05-14T16:10:34.053Z,24.31
2023-05-14T16:13:02.459Z,24.30
2023-05-14T16:15:32.421Z,24.33
2023-05-14T16:18:01.659Z,24.30
2023-05-14T16:20:30.343Z,24.28
2023-05-14T16:22:58.732Z,24.26
2023-05-14T16:25:27.431Z,24.27
2023-05-14T16:27:56.165Z,24.27
2023-05-14T16:30:24.780Z,24.27
2023-05-14T16:32:55.123Z,24.33
2023-05-14T16:35:23.596Z,24.32
2023-05-14T16:37:52.101Z,24.30
2023-05-14T16:40:21.956Z,24.28
2023-05-14T16:42:51.169Z,24.29
2023-05-14T16:45:19.649Z,24.29
2023-05-14T16:47:48.171Z,24.32
2023-05-14T16:50:18.424Z,24.32
2023-05-14T16:52:46.831Z,24.31
2023-05-14T16:55:15.596Z,24.31
2023-05-14T16:57:45.044Z,24.31
2023-05-14T17:00:15.410Z,24.30
2023-05-14T17:02:44.007Z,24.32
2023-05-14T17:05:12.475Z,24.32
2023-05-14T17:07:42.394Z,24.32
2023-05-14T17:10:12.013Z,24.34
2023-05-14T17:12:40.447Z,24.36
2023-05-14T17:15:10.925Z,24.35
2023-05-14T17:17:39.447Z,24.35
2023-05-14T17:20:09.269Z,24.40
2023-05-14T17:22:38.130Z,24.40
2023-05-14T17:25:10.169Z,24.38
2023-05-14T17:27:38.773Z,24.38
2023-05-14T17:30:09.321Z,24.39
2023-05-14T17:32:38.156Z,24.38
2023-05-14T17:35:09.775Z,24.38
2023-05-14T17:37:38.177Z,24.36
2023-05-14T17:40:10.134Z,24.38
2023-05-14T17:42:38.556Z,24.38
2023-05-14T17:45:08.966Z,24.38
2023-05-14T17:47:37.733Z,24.38
2023-05-14T17:50:07.776Z,24.40
2023-05-14T17:52:36.899Z,24.40
2023-05-14T17:55:07.592Z,24.39
2023-05-14T17:57:36.076Z,24.41
2023-05-14T18:00:05.152Z,24.40
2023-05-14T18:02:33.605Z,24.42
2023-05-14T18:05:03.361Z,24.40
2023-05-14T18:07:31.845Z,24.38
2023-05-14T18:10:00.414Z,24.39
2023-05-14T18:12:30.431Z,24.36
2023-05-14T18:14:58.914Z,24.41
2023-05-14T18:17:27.780Z,24.43
2023-05-14T18:19:56.216Z,24.43
2023-05-14T18:22:24.846Z,24.40
2023-05-14T18:24:53.566Z,24.42
2023-05-14T18:27:22.046Z,24.39
2023-05-14T18:29:53.495Z,24.38
2023-05-14T18:32:22.259Z,24.36
2023-05-14T18:34:51.059Z,24.34
2023-05-14T18:37:19.618Z,24.32
2023-05-14T18:39:48.169Z,24.29
2023-05-14T18:42:16.887Z,24.27
2023-05-14T18:44:45.355Z,24.29
2023-05-14T18:47:15.605Z,24.29
2023-05-14T18:49:44.112Z,24.28
2023-05-14T18:52:12.637Z,24.32
2023-05-14T18:54:41.089Z,24.30
2023-05-14T18:57:09.470Z,24.33
2023-05-14T18:59:38.020Z,24.28
2023-05-14T19:02:06.862Z,24.29
2023-05-14T19:04:50.555Z,24.28
2023-05-14T19:07:20.100Z,24.30
2023-05-14T19:09:48.675Z,24.30
2023-05-14T19:12:17.335Z,24.30
2023-05-14T19:14:45.854Z,24.29
2023-05-14T19:17:14.279Z,24.30
2023-05-14T19:19:44.127Z,24.28
2023-05-14T19:22:12.768Z,24.29
2023-05-14T19:24:41.276Z,24.30
2023-05-14T19:27:10.145Z,24.31
2023-05-14T19:29:38.702Z,24.32
2023-05-14T19:32:09.166Z,24.33
2023-05-14T19:34:37.875Z,24.31
2023-05-14T19:37:07.949Z,24.31
2023-05-14T19:39:36.694Z,24.33
2023-05-14T19:42:05.465Z,24.33
2023-05-14T19:44:34.048Z,24.32
2023-05-14T19:47:02.543Z,24.33
2023-05-14T19:49:31.087Z,24.33
2023-05-14T19:51:59.508Z,24.33
2023-05-14T19:54:29.468Z,24.32
2023-05-14T19:56:57.872Z,24.31
2023-05-14T19:59:26.590Z,24.32
2023-05-14T20:01:55.120Z,24.30
2023-05-14T20:04:23.557Z,24.31
2023-05-14T20:06:52.787Z,24.32
2023-05-14T20:09:21.255Z,24.32
2023-05-14T20:11:51.249Z,24.32
2023-05-14T20:14:19.706Z,24.31
2023-05-14T20:16:50.828Z,24.32
2023-05-14T20:19:21.435Z,24.32
2023-05-14T20:21:49.978Z,24.31
2023-05-14T20:24:18.507Z,24.31
2023-05-14T20:26:46.879Z,24.31
2023-05-14T20:29:16.927Z,24.30
2023-05-14T20:31:45.375Z,24.32
2023-05-14T20:34:13.799Z,24.32
2023-05-14T20:36:42.574Z,24.34
2023-05-14T20:39:11.826Z,24.32
2023-05-14T20:41:40.260Z,24.32
2023-05-14T20:44:08.749Z,24.31
2023-05-14T20:46:38.930Z,24.32
2023-05-14T20:49:07.462Z,24.30
2023-05-14T20:51:35.908Z,24.30
2023-05-14T20:54:04.374Z,24.31
2023-05-14T20:56:32.813Z,24.32
2023-05-14T20:59:01.459Z,24.32
2023-05-14T21:01:30.026Z,24.32
2023-05-14T21:04:00.079Z,24.32
2023-05-14T21:06:28.635Z,24.32
2023-05-14T21:08:57.235Z,24.33
2023-05-14T21:11:25.706Z,24.33
2023-05-14T21:13:54.454Z,24.33
2023-05-14T21:16:23.233Z,24.32
2023-05-14T21:18:51.806Z,24.33
2023-05-14T21:21:21.720Z,24.33
2023-05-14T21:23:50.492Z,24.32
2023-05-14T21:26:19.036Z,24.32
2023-05-14T21:28:47.488Z,24.32
2023-05-14T21:31:16.149Z,24.33
2023-05-14T21:33:44.635Z,24.34
2023-05-14T21:36:13.029Z,24.33
2023-05-14T21:38:42.941Z,24.34
2023-05-14T21:41:11.475Z,24.33
2023-05-14T21:43:40.743Z,24.30
2023-05-14T21:46:09.214Z,24.31
2023-05-14T21:48:37.783Z,24.31
2023-05-14T21:51:07.599Z,24.31
2023-05-14T21:53:35.981Z,24.29
2023-05-14T21:56:08.387Z,24.30
2023-05-14T21:58:37.220Z,24.30
2023-05-14T22:01:05.846Z,24.30
2023-05-14T22:03:34.528Z,24.32
2023-05-14T22:06:02.997Z,24.30
2023-05-14T22:08:32.394Z,24.31
2023-05-14T22:11:00.768Z,24.31
2023-05-14T22:13:30.793Z,24.30
2023-05-14T22:16:11.660Z,24.30
2023-05-14T22:18:41.149Z,24.29
2023-05-14T22:21:09.653Z,24.30
2023-05-14T22:23:38.115Z,24.30
2023-05-14T22:26:06.777Z,24.29
2023-05-14T22:28:39.839Z,24.29
2023-05-14T22:31:08.606Z,24.30
2023-05-14T22:33:37.409Z,24.28
2023-05-14T22:36:07.054Z,24.29
2023-05-14T22:38:35.557Z,24.29
2023-05-14T22:41:04.077Z,24.29
2023-05-14T22:43:32.502Z,24.28
2023-05-14T22:46:02.709Z,24.27
2023-05-14T22:48:31.380Z,24.27
2023-05-14T22:50:59.760Z,24.27
2023-05-14T22:53:28.187Z,24.27
2023-05-14T22:55:56.604Z,24.27
2023-05-14T22:58:25.129Z,24.25
2023-05-14T23:00:53.802Z,24.25
2023-05-14T23:03:23.569Z,24.24
2023-05-14T23:05:52.256Z,24.24
2023-05-14T23:08:20.607Z,24.24
2023-05-14T23:10:48.960Z,24.23
2023-05-14T23:13:18.051Z,24.23
2023-05-14T23:15:46.428Z,24.23
2023-05-14T23:18:15.113Z,24.23
2023-05-14T23:20:44.939Z,24.23
2023-05-14T23:23:13.525Z,24.21
2023-05-14T23:25:41.882Z,24.21
2023-05-14T23:28:10.854Z,24.21
2023-05-14T23:30:41.986Z,24.21
2023-05-14T23:33:10.470Z,24.20
2023-05-14T23:35:39.649Z,24.20
2023-05-14T23:38:09.407Z,24.20
2023-05-14T23:40:38.219Z,24.20
2023-05-14T23:43:06.886Z,24.19
2023-05-14T23:45:35.254Z,24.20
2023-05-14T23:48:04.192Z,24.20
2023-05-14T23:50:32.615Z,24.19
2023-05-14T23:53:00.966Z,24.19
2023-05-14T23:55:31.149Z,24.20
2023-05-14T23:57:59.581Z,24.20
